createdAt,value
2019-05-25T00:00:32.519Z,14.90
2019-05-25T00:03:34.855Z,14.90
2019-05-25T00:06:37.090Z,14.80
2019-05-25T00:09:39.339Z,14.80
2019-05-25T00:12:41.644Z,14.80
2019-05-25T00:15:43.926Z,14.70
2019-05-25T00:18:46.224Z,14.70
2019-05-25T00:21:48.487Z,14.60
2019-05-25T00:24:50.702Z,14.60
2019-05-25T00:27:52.961Z,14.60
2019-05-25T00:30:55.211Z,14.50
2019-05-25T00:33:57.519Z,14.50
2019-05-25T00:36:59.823Z,14.40
2019-05-25T00:40:02.094Z,14.40
2019-05-25T00:43:04.388Z,14.30
2019-05-25T00:46:06.695Z,14.20
2019-05-25T00:49:08.928Z,14.20
2019-05-25T00:52:11.220Z,14.20
2019-05-25T00:55:13.453Z,14.10
2019-05-25T00:58:15.692Z,14.00
2019-05-25T01:01:17.900Z,14.00
2019-05-25T01:04:20.137Z,14.00
2019-05-25T01:07:22.384Z,13.90
2019-05-25T01:10:24.669Z,13.90
2019-05-25T01:13:26.927Z,13.80
2019-05-25T01:16:29.213Z,13.80
2019-05-25T01:19:31.536Z,13.70
2019-05-25T01:22:33.786Z,13.70
2019-05-25T01:25:36.069Z,13.60
2019-05-25T01:28:38.335Z,13.60
2019-05-25T01:31:40.603Z,13.50
2019-05-25T01:34:42.860Z,13.50
2019-05-25T01:37:48.324Z,13.50
2019-05-25T01:40:47.450Z,13.40
2019-05-25T01:43:49.670Z,13.40
2019-05-25T01:46:51.950Z,13.30
2019-05-25T01:49:54.191Z,13.30
2019-05-25T01:52:56.430Z,13.30
2019-05-25T01:55:58.701Z,13.20
2019-05-25T01:59:00.989Z,13.20
2019-05-25T02:02:03.350Z,13.10
2019-05-25T02:05:05.879Z,13.10
2019-05-25T02:08:08.115Z,13.10
2019-05-25T02:11:10.327Z,13.00
2019-05-25T02:14:12.629Z,13.00
2019-05-25T02:17:14.869Z,13.00
2019-05-25T02:20:17.148Z,12.90
2019-05-25T02:23:19.592Z,12.90
2019-05-25T02:26:21.841Z,12.90
2019-05-25T02:29:24.220Z,12.80
2019-05-25T02:32:26.441Z,12.80
2019-05-25T02:35:28.791Z,12.80
2019-05-25T02:38:31.080Z,12.80
2019-05-25T02:41:33.365Z,12.80
2019-05-25T02:44:35.691Z,12.70
2019-05-25T02:47:37.934Z,12.70
2019-05-25T02:50:40.191Z,12.70
2019-05-25T02:53:42.440Z,12.70
2019-05-25T02:56:44.675Z,12.70
2019-05-25T02:59:47.074Z,12.60
2019-05-25T03:02:49.388Z,12.60
2019-05-25T03:05:51.710Z,12.60
2019-05-25T03:08:54.015Z,12.60
2019-05-25T03:11:56.295Z,12.60
2019-05-25T03:14:58.532Z,12.50
2019-05-25T03:18:00.800Z,12.50
2019-05-25T03:21:03.109Z,12.50
2019-05-25T03:24:05.338Z,12.50
2019-05-25T03:27:07.563Z,12.40
2019-05-25T03:30:09.937Z,12.40
2019-05-25T03:33:12.158Z,12.40
2019-05-25T03:36:14.397Z,12.30
2019-05-25T03:39:16.631Z,12.30
2019-05-25T03:42:18.937Z,12.30
2019-05-25T03:45:21.200Z,12.30
2019-05-25T03:48:23.487Z,12.20
2019-05-25T03:51:25.714Z,12.20
2019-05-25T03:54:27.943Z,12.20
2019-05-25T03:57:30.161Z,12.20
2019-05-25T04:00:33.636Z,12.20
2019-05-25T04:03:35.849Z,12.10
2019-05-25T04:06:38.112Z,12.10
2019-05-25T04:09:40.367Z,12.10
2019-05-25T04:12:42.569Z,12.10
2019-05-25T04:15:44.930Z,12.10
2019-05-25T04:18:47.184Z,12.10
2019-05-25T04:21:49.432Z,12.10
2019-05-25T04:24:51.691Z,12.10
2019-05-25T04:27:53.921Z,12.10
2019-05-25T04:30:56.172Z,12.10
2019-05-25T04:33:58.385Z,12.10
2019-05-25T04:37:00.675Z,12.10
2019-05-25T04:40:03.086Z,12.10
2019-05-25T04:43:05.352Z,12.10
2019-05-25T04:46:07.577Z,12.20
2019-05-25T04:49:09.827Z,12.20
2019-05-25T04:52:12.049Z,12.20
2019-05-25T04:55:14.325Z,12.40
2019-05-25T04:58:16.605Z,12.60
2019-05-25T05:01:22.310Z,12.80
2019-05-25T05:04:21.203Z,13.00
2019-05-25T05:07:23.433Z,13.30
2019-05-25T05:10:26.318Z,13.60
2019-05-25T05:13:28.571Z,13.80
2019-05-25T05:16:30.875Z,14.10
2019-05-25T05:19:33.102Z,14.30
2019-05-25T05:22:35.359Z,14.60
2019-05-25T05:25:37.572Z,14.80
2019-05-25T05:28:39.837Z,15.00
2019-05-25T05:31:42.134Z,15.20
2019-05-25T05:34:44.427Z,15.40
2019-05-25T05:37:46.704Z,15.60
2019-05-25T05:40:48.968Z,15.80
2019-05-25T05:43:51.231Z,16.00
2019-05-25T05:46:53.509Z,16.20
2019-05-25T05:49:55.810Z,16.40
2019-05-25T05:52:58.089Z,16.60
2019-05-25T05:56:00.291Z,16.70
2019-05-25T05:59:02.556Z,16.90
2019-05-25T06:02:04.828Z,17.10
2019-05-25T06:05:07.133Z,17.30
2019-05-25T06:08:09.433Z,17.40
2019-05-25T06:11:11.648Z,17.60
2019-05-25T06:14:13.900Z,17.80
2019-05-25T06:17:16.129Z,18.00
2019-05-25T06:20:18.482Z,18.20
2019-05-25T06:23:20.718Z,18.30
2019-05-25T06:26:22.954Z,18.40
2019-05-25T06:29:25.242Z,18.60
2019-05-25T06:32:27.542Z,18.70
2019-05-25T06:35:29.906Z,18.90
2019-05-25T06:38:32.188Z,19.00
2019-05-25T06:41:34.519Z,19.20
2019-05-25T06:44:36.798Z,19.30
2019-05-25T06:47:39.056Z,19.40
2019-05-25T06:50:41.346Z,19.50
2019-05-25T06:53:43.640Z,19.70
2019-05-25T06:56:45.914Z,19.80
2019-05-25T06:59:48.149Z,19.90
2019-05-25T07:02:50.449Z,19.90
2019-05-25T07:05:52.727Z,20.00
2019-05-25T07:08:54.993Z,20.10
2019-05-25T07:11:57.214Z,20.10
2019-05-25T07:14:59.465Z,20.20
2019-05-25T07:18:01.708Z,20.30
2019-05-25T07:21:04.058Z,20.40
2019-05-25T07:24:06.312Z,20.40
2019-05-25T07:27:08.608Z,20.40
2019-05-25T07:30:10.989Z,20.30
2019-05-25T07:33:13.194Z,20.20
2019-05-25T07:36:15.440Z,20.20
2019-05-25T07:39:17.677Z,20.20
2019-05-25T07:42:20.229Z,20.20
2019-05-25T07:45:22.199Z,20.20
2019-05-25T07:48:24.480Z,20.20
2019-05-25T07:51:26.723Z,20.10
2019-05-25T07:54:28.943Z,20.10
2019-05-25T07:57:31.179Z,20.10
2019-05-25T08:00:33.412Z,20.20
2019-05-25T08:03:39.538Z,20.20
2019-05-25T08:06:37.920Z,20.20
2019-05-25T08:09:40.165Z,20.30
2019-05-25T08:12:42.419Z,20.50
2019-05-25T08:15:44.672Z,20.60
2019-05-25T08:18:47.212Z,20.80
2019-05-25T08:21:49.581Z,20.90
2019-05-25T08:24:51.829Z,20.70
2019-05-25T08:27:54.079Z,20.80
2019-05-25T08:30:56.364Z,20.90
2019-05-25T08:33:58.615Z,21.00
2019-05-25T08:37:00.863Z,21.00
2019-05-25T08:40:03.869Z,20.80
2019-05-25T08:43:06.139Z,20.80
2019-05-25T08:46:08.377Z,20.80
2019-05-25T08:49:10.645Z,20.50
2019-05-25T08:52:12.908Z,20.50
2019-05-25T08:55:15.180Z,20.40
2019-05-25T08:58:17.392Z,20.40
2019-05-25T09:01:19.599Z,20.40
2019-05-25T09:04:21.812Z,20.40
2019-05-25T09:07:24.163Z,20.50
2019-05-25T09:10:26.388Z,20.50
2019-05-25T09:13:28.665Z,20.60
2019-05-25T09:16:31.022Z,20.60
2019-05-25T09:19:33.322Z,20.70
2019-05-25T09:22:35.671Z,20.80
2019-05-25T09:25:37.901Z,20.90
2019-05-25T09:28:40.157Z,21.00
2019-05-25T09:31:42.437Z,20.80
2019-05-25T09:34:44.697Z,20.80
2019-05-25T09:37:46.948Z,20.80
2019-05-25T09:40:49.210Z,21.00
2019-05-25T09:43:51.421Z,21.10
2019-05-25T09:46:53.655Z,21.20
2019-05-25T09:49:56.151Z,21.10
2019-05-25T09:52:58.387Z,21.10
2019-05-25T09:56:00.613Z,21.10
2019-05-25T09:59:02.908Z,21.20
2019-05-25T10:02:05.164Z,21.30
2019-05-25T10:05:07.537Z,21.30
2019-05-25T10:08:09.766Z,21.20
2019-05-25T10:11:12.432Z,21.10
2019-05-25T10:14:14.724Z,21.00
2019-05-25T10:17:17.302Z,20.90
2019-05-25T10:20:19.619Z,20.80
2019-05-25T10:23:21.959Z,20.90
2019-05-25T10:26:24.173Z,20.90
2019-05-25T10:29:36.537Z,20.90
2019-05-25T10:32:28.679Z,20.90
2019-05-25T10:35:31.041Z,20.90
2019-05-25T10:38:33.280Z,21.00
2019-05-25T10:41:35.505Z,20.90
2019-05-25T10:44:37.715Z,20.80
2019-05-25T10:47:39.959Z,20.60
2019-05-25T10:50:42.283Z,20.50
2019-05-25T10:53:44.552Z,20.40
2019-05-25T10:56:46.761Z,20.40
2019-05-25T10:59:52.875Z,20.50
2019-05-25T11:02:51.211Z,20.60
2019-05-25T11:05:53.431Z,20.80
2019-05-25T11:08:55.665Z,20.90
2019-05-25T11:11:57.908Z,21.00
2019-05-25T11:15:00.155Z,21.00
2019-05-25T11:18:02.488Z,21.10
2019-05-25T11:21:04.754Z,21.20
2019-05-25T11:24:07.006Z,21.30
2019-05-25T11:27:09.215Z,21.30
2019-05-25T11:30:11.565Z,21.40
2019-05-25T11:33:13.832Z,21.30
2019-05-25T11:36:16.177Z,21.30
2019-05-25T11:39:18.397Z,21.30
2019-05-25T11:42:20.653Z,21.30
2019-05-25T11:45:22.922Z,21.30
2019-05-25T11:48:25.159Z,21.50
2019-05-25T11:51:27.432Z,21.50
2019-05-25T11:54:29.687Z,21.60
2019-05-25T11:57:31.920Z,21.60
2019-05-25T12:00:34.289Z,21.70
2019-05-25T12:03:36.538Z,21.80
2019-05-25T12:06:38.783Z,21.40
2019-05-25T12:09:41.045Z,21.20
2019-05-25T12:12:43.322Z,21.10
2019-05-25T12:15:45.549Z,21.00
2019-05-25T12:18:47.816Z,21.00
2019-05-25T12:21:50.068Z,20.70
2019-05-25T12:24:52.300Z,20.40
2019-05-25T12:27:54.508Z,20.40
2019-05-25T12:30:56.781Z,20.50
2019-05-25T12:33:59.013Z,20.50
2019-05-25T12:37:01.295Z,20.50
2019-05-25T12:40:04.021Z,20.50
2019-05-25T12:43:06.259Z,20.60
2019-05-25T12:46:08.543Z,20.60
2019-05-25T12:49:10.763Z,20.60
2019-05-25T12:52:12.979Z,20.70
2019-05-25T12:55:15.259Z,20.70
2019-05-25T12:58:17.501Z,20.80
2019-05-25T13:01:19.877Z,20.80
2019-05-25T13:04:22.150Z,20.80
2019-05-25T13:07:24.395Z,20.80
2019-05-25T13:10:26.712Z,20.90
2019-05-25T13:13:28.997Z,21.00
2019-05-25T13:16:31.298Z,21.10
2019-05-25T13:19:33.584Z,21.10
2019-05-25T13:22:35.856Z,21.10
2019-05-25T13:25:38.111Z,21.10
2019-05-25T13:28:40.345Z,21.20
2019-05-25T13:31:42.575Z,21.30
2019-05-25T13:34:44.874Z,21.30
2019-05-25T13:37:47.153Z,21.30
2019-05-25T13:40:49.415Z,21.40
2019-05-25T13:43:51.639Z,21.40
2019-05-25T13:46:53.895Z,21.40
2019-05-25T13:49:56.156Z,21.40
2019-05-25T13:52:58.387Z,21.40
2019-05-25T13:56:00.677Z,21.40
2019-05-25T13:59:02.983Z,21.40
2019-05-25T14:02:05.253Z,21.40
2019-05-25T14:05:07.565Z,21.30
2019-05-25T14:08:09.879Z,21.30
2019-05-25T14:11:12.095Z,21.20
2019-05-25T14:14:14.382Z,21.10
2019-05-25T14:17:16.613Z,21.00
2019-05-25T14:20:18.887Z,21.00
2019-05-25T14:23:21.173Z,21.00
2019-05-25T14:26:23.452Z,21.00
2019-05-25T14:29:26.556Z,21.00
2019-05-25T14:32:27.999Z,21.00
2019-05-25T14:35:30.286Z,21.00
2019-05-25T14:38:32.532Z,21.00
2019-05-25T14:41:34.761Z,21.00
2019-05-25T14:44:37.013Z,21.00
2019-05-25T14:47:39.225Z,20.90
2019-05-25T14:50:41.521Z,20.90
2019-05-25T14:53:43.745Z,20.90
2019-05-25T14:56:46.040Z,20.90
2019-05-25T14:59:48.261Z,20.90
2019-05-25T15:02:50.552Z,20.90
2019-05-25T15:05:52.800Z,20.90
2019-05-25T15:08:55.031Z,20.90
2019-05-25T15:11:57.268Z,20.90
2019-05-25T15:14:59.780Z,21.00
2019-05-25T15:18:02.115Z,20.90
2019-05-25T15:21:04.397Z,20.90
2019-05-25T15:24:06.811Z,20.90
2019-05-25T15:27:08.977Z,20.90
2019-05-25T15:30:11.247Z,21.00
2019-05-25T15:33:13.460Z,21.00
2019-05-25T15:36:15.746Z,21.00
2019-05-25T15:39:18.027Z,21.00
2019-05-25T15:42:20.321Z,21.10
2019-05-25T15:45:22.639Z,21.10
2019-05-25T15:48:26.377Z,21.10
2019-05-25T15:51:27.151Z,21.10
2019-05-25T15:54:29.374Z,21.10
2019-05-25T15:57:31.690Z,21.10
2019-05-25T16:00:42.974Z,21.10
2019-05-25T16:03:45.194Z,21.10
2019-05-25T16:06:47.479Z,21.10
2019-05-25T16:09:49.723Z,21.10
2019-05-25T16:12:51.961Z,21.10
2019-05-25T16:15:54.257Z,21.00
2019-05-25T16:18:56.539Z,21.00
2019-05-25T16:21:58.780Z,21.00
2019-05-25T16:25:01.040Z,20.90
2019-05-25T16:28:03.364Z,20.90
2019-05-25T16:31:05.681Z,20.90
2019-05-25T16:34:07.975Z,20.90
2019-05-25T16:37:10.332Z,20.80
2019-05-25T16:40:12.577Z,20.70
2019-05-25T16:43:14.871Z,20.60
2019-05-25T16:46:17.163Z,20.50
2019-05-25T16:49:19.491Z,20.40
2019-05-25T16:52:21.768Z,20.40
2019-05-25T16:55:24.042Z,20.30
2019-05-25T16:58:26.281Z,20.20
2019-05-25T17:01:46.404Z,20.10
2019-05-25T17:04:30.795Z,20.10
2019-05-25T17:07:33.088Z,20.00
2019-05-25T17:10:35.422Z,20.00
2019-05-25T17:13:37.703Z,19.90
2019-05-25T17:16:39.957Z,19.80
2019-05-25T17:19:42.397Z,19.80
2019-05-25T17:22:44.737Z,19.60
2019-05-25T17:25:46.972Z,19.60
2019-05-25T17:28:49.298Z,19.40
2019-05-25T17:31:51.549Z,19.30
2019-05-25T17:34:53.811Z,19.20
2019-05-25T17:37:56.055Z,19.20
2019-05-25T17:40:58.412Z,19.10
2019-05-25T17:44:00.673Z,19.00
2019-05-25T17:47:02.992Z,18.90
2019-05-25T17:50:05.352Z,18.90
2019-05-25T17:53:07.658Z,18.80
2019-05-25T17:56:09.962Z,18.80
2019-05-25T17:59:12.255Z,18.70
2019-05-25T18:02:14.533Z,18.60
2019-05-25T18:05:16.795Z,18.50
2019-05-25T18:08:19.024Z,18.40
2019-05-25T18:11:21.295Z,18.40
2019-05-25T18:14:23.538Z,18.20
2019-05-25T18:17:25.800Z,17.70
2019-05-25T18:20:28.110Z,17.30
2019-05-25T18:23:30.430Z,17.00
2019-05-25T18:26:32.675Z,16.70
2019-05-25T18:29:34.937Z,16.50
2019-05-25T18:32:37.223Z,16.30
2019-05-25T18:35:39.424Z,16.10
2019-05-25T18:38:41.696Z,16.00
2019-05-25T18:41:43.998Z,16.00
2019-05-25T18:44:46.255Z,15.90
2019-05-25T18:47:48.521Z,15.80
2019-05-25T18:50:50.819Z,15.80
2019-05-25T18:53:53.070Z,15.80
2019-05-25T18:56:55.295Z,15.80
2019-05-25T18:59:57.531Z,15.80
2019-05-25T19:02:59.798Z,15.70
2019-05-25T19:06:02.073Z,15.70
2019-05-25T19:09:06.453Z,15.60
2019-05-25T19:12:08.749Z,15.60
2019-05-25T19:15:11.085Z,15.50
2019-05-25T19:18:13.335Z,15.50
2019-05-25T19:21:15.550Z,15.40
2019-05-25T19:24:17.791Z,15.40
2019-05-25T19:27:20.052Z,15.30
2019-05-25T19:30:22.684Z,15.30
2019-05-25T19:33:24.941Z,15.20
2019-05-25T19:36:27.218Z,15.20
2019-05-25T19:39:29.505Z,15.20
2019-05-25T19:42:31.736Z,15.10
2019-05-25T19:45:33.978Z,15.10
2019-05-25T19:48:36.664Z,15.00
2019-05-25T19:51:38.911Z,15.00
2019-05-25T19:54:41.215Z,15.00
2019-05-25T19:57:45.463Z,14.90
2019-05-25T20:00:45.807Z,14.90
2019-05-25T20:03:48.092Z,14.90
2019-05-25T20:06:50.304Z,14.90
2019-05-25T20:09:52.563Z,14.90
2019-05-25T20:12:54.915Z,14.80
2019-05-25T20:15:57.162Z,14.80
2019-05-25T20:18:59.429Z,14.80
2019-05-25T20:22:01.757Z,14.70
2019-05-25T20:25:04.176Z,14.70
2019-05-25T20:28:06.428Z,14.70
2019-05-25T20:31:08.674Z,14.70
2019-05-25T20:34:10.932Z,14.70
2019-05-25T20:37:13.175Z,14.60
2019-05-25T20:40:16.025Z,14.60
2019-05-25T20:43:17.767Z,14.60
2019-05-25T20:46:20.005Z,14.60
2019-05-25T20:49:22.237Z,14.50
2019-05-25T20:52:24.499Z,14.50
2019-05-25T20:55:26.757Z,14.50
2019-05-25T20:58:29.000Z,14.50
2019-05-25T21:01:31.268Z,14.50
2019-05-25T21:04:33.621Z,14.50
2019-05-25T21:07:35.915Z,14.50
2019-05-25T21:10:38.172Z,14.50
2019-05-25T21:13:40.379Z,14.50
2019-05-25T21:16:42.692Z,14.40
2019-05-25T21:19:44.942Z,14.40
2019-05-25T21:22:47.195Z,14.40
2019-05-25T21:25:49.432Z,14.40
2019-05-25T21:28:51.690Z,14.30
2019-05-25T21:31:53.949Z,14.30
2019-05-25T21:34:56.181Z,14.30
2019-05-25T21:37:58.418Z,14.30
2019-05-25T21:41:00.636Z,14.20
2019-05-25T21:44:02.879Z,14.20
2019-05-25T21:47:05.182Z,14.20
2019-05-25T21:50:07.500Z,14.20
2019-05-25T21:53:11.266Z,14.10
2019-05-25T21:56:12.012Z,14.10
2019-05-25T21:59:14.268Z,14.10
2019-05-25T22:02:16.584Z,14.10
2019-05-25T22:05:18.898Z,14.00
2019-05-25T22:08:21.223Z,14.00
2019-05-25T22:11:23.524Z,14.00
2019-05-25T22:14:25.820Z,14.00
2019-05-25T22:17:28.078Z,14.00
2019-05-25T22:20:30.342Z,14.00
2019-05-25T22:23:32.577Z,14.00
2019-05-25T22:26:34.883Z,13.90
2019-05-25T22:29:37.173Z,13.90
2019-05-25T22:32:39.467Z,13.90
2019-05-25T22:35:41.722Z,13.90
2019-05-25T22:38:43.959Z,13.90
2019-05-25T22:41:46.281Z,13.90
2019-05-25T22:44:48.530Z,13.90
2019-05-25T22:47:50.767Z,13.90
2019-05-25T22:50:53.775Z,13.90
2019-05-25T22:53:56.027Z,13.90
2019-05-25T22:56:58.287Z,13.90
2019-05-25T23:00:00.578Z,13.90
2019-05-25T23:03:02.831Z,13.90
2019-05-25T23:06:05.095Z,13.80
2019-05-25T23:09:07.323Z,13.80
2019-05-25T23:12:09.659Z,13.80
2019-05-25T23:15:12.011Z,13.80
2019-05-25T23:18:14.243Z,13.70
2019-05-25T23:21:16.483Z,13.80
2019-05-25T23:24:18.692Z,13.80
2019-05-25T23:27:20.940Z,13.70
2019-05-25T23:30:23.282Z,13.70
2019-05-25T23:33:25.563Z,13.70
2019-05-25T23:36:27.843Z,13.70
2019-05-25T23:39:30.087Z,13.70
2019-05-25T23:42:32.436Z,13.70
2019-05-25T23:45:34.621Z,13.70
2019-05-25T23:48:36.919Z,13.70
2019-05-25T23:51:39.221Z,13.70
2019-05-25T23:54:41.519Z,13.70
2019-05-25T23:57:43.749Z,13.70
